• Join FlightAware (Why Join?)
  • Login
  • US Flag 
11:16PM EDT


 

Airport Tracker/Info


-or-


 

Live Flight TrackerFlight Track Log ✈ N654DL ✈ 27-Apr-2013 ✈ KATL - KSRQ

Flight Track Log - Related Links

Times and Time Zones

All times are in EDT time to prevent confusion due to time zone crossing. See the N654DL flight status page for this flight to view local times or setup timezone preferences in your user account.

Time Position Orientation Groundspeed Altitude Reporting Facility
EDT Latitude Longitude Course Direction KTS MPH feet Rate Location/Type
09:37PM 33.6333 -84.3833 194° South 186 214 3,200  Level Atlanta TRACON
09:38PM 33.6167 -84.3167 107° East 244 281 6,400 3,300 Climbing Atlanta TRACON
09:39PM 33.3897 -84.2843 194° South  Level FlightAware Approximate
09:39PM 33.5500 -84.2667 148° Southeast 282 325 9,800  Level Atlanta TRACON
09:40PM 33.2775 -84.3171 194° South  Level FlightAware Approximate
09:40PM 33.4286 -84.3078 196° South 316 364 12,400  Level Atlanta Center
09:41PM 33.1654 -84.3498 194° South  Level FlightAware Approximate
09:41PM 33.3306 -84.3297 191° South 359 413 16,900  Level Atlanta Center
09:42PM 33.0533 -84.3824 194° South  Level FlightAware Approximate
09:42PM 33.2261 -84.3567 192° South 378 435 18,700  Level Atlanta Center
09:43PM 33.1072 -84.3414 174° South 411 473 21,100 2,220 Climbing Atlanta Center
09:44PM 32.9861 -84.3286 175° South 442 509 23,200 1,860 Climbing Atlanta Center
09:45PM 32.8442 -84.3133 175° South 454 522 24,900 1,620 Climbing Atlanta Center
09:46PM 32.7253 -84.2981 174° South 467 537 26,500 1,800 Climbing Atlanta Center
09:47PM 32.5917 -84.2781 173° South 480 552 28,500 2,100 Climbing Atlanta Center
09:48PM 32.4603 -84.2581 173° South 480 552 30,700 1,920 Climbing Atlanta Center
09:50PM 32.2242 -84.2236 173° South 476 548 34,000 1,740 Climbing Jacksonville Center
09:51PM 32.0950 -84.2069 174° South 476 548 35,700 1,500 Climbing Jacksonville Center
09:52PM 31.9636 -84.1881 173° South 476 548 37,000 600 Climbing Jacksonville Center
09:53PM 31.8386 -84.1569 168° South 476 548 37,000  Level Jacksonville Center
09:54PM 31.7097 -84.1208 167° South 471 542 37,000  Level Jacksonville Center
09:55PM 31.5825 -84.0853 167° South 471 542 37,000  Level Jacksonville Center
09:56PM 31.4536 -84.0494 167° South 471 542 37,000  Level Jacksonville Center
09:57PM 31.3264 -84.0114 166° South 471 542 37,000  Level Jacksonville Center
09:58PM 31.2014 -83.9758 166° South 471 542 37,000  Level Jacksonville Center
09:59PM 31.0722 -83.9381 166° South 471 542 37,000  Level Jacksonville Center
10:00PM 30.9475 -83.9003 165° South 471 542 37,000  Level Jacksonville Center
10:01PM 30.8203 -83.8722 169° South 471 542 37,000  Level Jacksonville Center
10:02PM 30.6931 -83.8347 166° South 471 542 37,000  Level Jacksonville Center
10:03PM 30.5661 -83.7997 167° South 471 542 37,000  Level Jacksonville Center
10:04PM 30.4431 -83.7672 167° South 465 535 37,000  Level Jacksonville Center
10:05PM 30.3139 -83.7322 167° South 470 541 37,000  Level Jacksonville Center
10:06PM 30.1867 -83.6975 167° South 470 541 37,000  Level Jacksonville Center
10:07PM 30.0617 -83.6653 167° South 470 541 37,000  Level Jacksonville Center
10:08PM 29.9200 -83.6258 166° South 475 547 37,000  Level Jacksonville Center
10:09PM 29.7928 -83.5914 167° South 470 541 37,000  Level Jacksonville Center
10:10PM 29.6656 -83.5569 167° South 470 541 37,000  Level Jacksonville Center
10:11PM 29.5406 -83.5253 168° South 470 541 37,000  Level Jacksonville Center
10:12PM 29.4111 -83.4908 167° South 470 541 37,000  Level Jacksonville Center
10:13PM 29.2861 -83.4569 167° South 470 541 37,000  Level Jacksonville Center
10:14PM 29.1611 -83.4228 167° South 470 541 37,000 -420 Level Jacksonville Center
10:15PM 29.0358 -83.3914 168° South 470 541 36,200 -1,380 Descending Jacksonville Center
10:16PM 28.9067 -83.3528 165° South 470 541 34,300 -2,640 Descending Jacksonville Center
10:17PM 28.7836 -83.3047 161° South 470 541 31,000 -3,600 Descending Jacksonville Center
10:18PM 28.6606 -83.2569 161° South 470 541 27,200 -3,780 Descending Jacksonville Center
10:20PM 28.4667 -83.1833 162° South 460 529 21,300 -3,480 Descending Tampa TRACON
10:21PM 28.3500 -83.1333 159° South 438 504 18,300 -3,000 Descending Tampa TRACON
10:22PM 28.2500 -83.0833 156° South 411 473 15,300 -3,120 Descending Tampa TRACON
10:23PM 28.1333 -83.0500 166° South 406 467 12,100 -2,160 Descending Tampa TRACON
10:24PM 28.0500 -83.0000 152° Southeast 359 413 11,000 -1,020 Descending Tampa TRACON
10:25PM 27.9667 -82.9500 152° Southeast 297 342 10,100 -1,440 Descending Tampa TRACON
10:26PM 27.9000 -82.9167 156° South 287 330 8,200 -1,920 Descending Tampa TRACON
10:27PM 27.8333 -82.8833 156° South 272 313 6,300 -1,800 Descending Tampa TRACON
10:28PM 27.7667 -82.8333 146° Southeast 261 300 4,600 -1,500 Descending Tampa TRACON
10:29PM 27.7000 -82.8000 156° South 257 296 3,400 -1,200 Descending Tampa TRACON
10:30PM 27.6333 -82.7667 156° South 251 289 2,200 -720 Descending Tampa TRACON
10:31PM 27.5833 -82.7500 164° South 222 255 2,100 -60 Descending Tampa TRACON
10:32PM 27.5333 -82.7167 149° Southeast 209 241 2,100  Level Tampa TRACON
10:33PM 27.5000 -82.6667 127° Southeast 179 206 2,100 -180 Level Tampa TRACON
10:34PM 27.4667 -82.6333 138° Southeast 153 176 1,800 -420 Descending Tampa TRACON
10:35PM 27.4500 -82.6167 138° Southeast 116 133 1,300 -540 Descending Tampa TRACON